Hamoir, Belgium
Current Conditions -  °F | °C
As of 11:50 PM on Saturday 20 Dec 2014 (Local Time) from EBLG Reporting Station
Few Clouds Few Clouds  
Wind Chill: 31°   Ceiling: Unl
Heat Index: 37°   Visibility: 6mi
Dew Point: 36°   Wind: 8mph
Humidity: 93%   Direction: 260°W
Pressure: 30.39"   Gusts: NA
Location:  50.43°N, 5.53°E
Report Text: EBLG 202250Z 26007KT 9999 FEW025 03/02 Q1029 NOSIG
Loading
Personal Weather Stations






























Interactive Weather Map New forecast layout! Learn more

10-Day Weather Forecast

Advertisements
Track Severe Weather on mobile